createdAt,value
2023-02-17T00:02:11.940Z,31.10
2023-02-17T00:04:44.701Z,29.37
2023-02-17T00:07:14.738Z,33.27
2023-02-17T00:09:44.729Z,28.77
2023-02-17T00:12:14.750Z,28.43
2023-02-17T00:14:44.973Z,28.93
2023-02-17T00:17:14.984Z,35.07
2023-02-17T00:19:47.557Z,38.13
2023-02-17T00:22:17.449Z,35.57
2023-02-17T00:24:47.427Z,37.90
2023-02-17T00:27:17.454Z,39.77
2023-02-17T00:29:47.339Z,38.00
2023-02-17T00:32:17.366Z,39.13
2023-02-17T00:34:50.135Z,37.87
2023-02-17T00:37:20.142Z,34.03
2023-02-17T00:39:54.266Z,36.10
2023-02-17T00:42:24.184Z,35.17
2023-02-17T00:44:53.945Z,38.53
2023-02-17T00:47:23.912Z,37.90
2023-02-17T00:49:56.612Z,37.67
2023-02-17T00:52:29.170Z,39.70
2023-02-17T00:54:59.088Z,38.17
2023-02-17T00:57:32.478Z,34.27
2023-02-17T01:00:02.660Z,41.20
2023-02-17T01:02:32.628Z,37.20
2023-02-17T01:05:05.131Z,37.53
2023-02-17T01:07:37.421Z,42.37
2023-02-17T01:10:12.614Z,39.33
2023-02-17T01:12:42.937Z,42.20
2023-02-17T01:15:13.363Z,33.70
2023-02-17T01:17:43.293Z,38.03
2023-02-17T01:20:16.276Z,32.67
2023-02-17T01:22:46.183Z,38.07
2023-02-17T01:25:16.508Z,36.57
2023-02-17T01:27:50.651Z,37.53
2023-02-17T01:30:21.124Z,37.27
2023-02-17T01:32:53.938Z,43.07
2023-02-17T01:35:26.609Z,34.90
2023-02-17T01:37:56.560Z,38.10
2023-02-17T01:40:27.100Z,38.93
2023-02-17T01:42:56.978Z,37.10
2023-02-17T01:45:47.892Z,37.40
2023-02-17T01:48:21.900Z,36.37
2023-02-17T01:51:00.308Z,38.90
2023-02-17T01:53:35.781Z,37.63
2023-02-17T01:56:09.982Z,39.20
2023-02-17T01:58:43.686Z,36.37
2023-02-17T02:01:16.661Z,39.37
2023-02-17T02:03:47.608Z,43.40
2023-02-17T02:06:23.797Z,40.60
2023-02-17T02:09:02.386Z,39.83
2023-02-17T02:11:34.454Z,36.30
2023-02-17T02:14:07.029Z,36.90
2023-02-17T02:16:46.352Z,32.70
2023-02-17T02:19:40.560Z,31.17
2023-02-17T02:22:43.061Z,36.60
2023-02-17T02:25:32.846Z,35.47
2023-02-17T02:28:21.623Z,38.13
2023-02-17T02:31:17.190Z,37.00
2023-02-17T02:33:55.200Z,33.87
2023-02-17T02:36:33.310Z,35.60
2023-02-17T02:41:59.763Z,37.83
2023-02-17T02:44:32.446Z,32.43
2023-02-17T02:47:06.342Z,32.23
2023-02-17T02:49:41.494Z,30.73
2023-02-17T02:52:17.418Z,38.50
2023-02-17T02:55:04.675Z,32.10
2023-02-17T02:57:53.075Z,39.47
2023-02-17T03:00:31.547Z,35.47
2023-02-17T03:03:08.418Z,33.10
2023-02-17T03:05:51.230Z,30.30
2023-02-17T03:08:29.465Z,29.20
2023-02-17T03:10:59.718Z,32.40
2023-02-17T03:13:30.092Z,33.20
2023-02-17T03:16:01.261Z,32.90
2023-02-17T03:18:32.588Z,32.53
2023-02-17T03:21:10.108Z,33.07
2023-02-17T03:23:39.877Z,36.27
2023-02-17T03:26:09.662Z,30.50
2023-02-17T03:28:45.591Z,31.30
2023-02-17T03:31:17.781Z,34.23
2023-02-17T03:33:48.870Z,37.10
2023-02-17T03:36:22.802Z,31.83
2023-02-17T03:38:52.827Z,29.70
2023-02-17T03:41:25.903Z,35.80
2023-02-17T03:43:56.115Z,30.70
2023-02-17T03:46:32.084Z,29.37
2023-02-17T03:49:01.997Z,30.53
2023-02-17T03:51:34.599Z,34.53
2023-02-17T03:54:04.606Z,34.00
2023-02-17T03:56:34.936Z,33.87
2023-02-17T03:59:07.897Z,34.53
2023-02-17T04:01:37.882Z,37.67
2023-02-17T04:04:08.107Z,35.50
2023-02-17T04:06:42.708Z,34.57
2023-02-17T04:09:12.639Z,34.50
2023-02-17T04:11:42.593Z,34.27
2023-02-17T04:14:12.630Z,34.07
2023-02-17T04:16:42.661Z,34.03
2023-02-17T04:19:12.458Z,34.60
2023-02-17T04:21:45.038Z,32.47
2023-02-17T04:24:17.452Z,31.03
2023-02-17T04:26:47.305Z,34.37
2023-02-17T04:29:19.794Z,34.40
2023-02-17T04:31:49.817Z,36.77
2023-02-17T04:34:19.703Z,35.73
2023-02-17T04:36:52.300Z,37.50
2023-02-17T04:39:22.316Z,32.10
2023-02-17T04:41:52.335Z,34.40
2023-02-17T04:44:22.147Z,35.47
2023-02-17T04:46:52.064Z,37.47
2023-02-17T04:49:22.048Z,34.03
2023-02-17T04:51:54.560Z,36.53
2023-02-17T04:54:25.190Z,34.30
2023-02-17T04:57:00.976Z,37.90
2023-02-17T04:59:37.145Z,37.63
2023-02-17T05:02:09.104Z,36.23
2023-02-17T05:04:41.693Z,36.43
2023-02-17T05:07:14.334Z,37.83
2023-02-17T05:09:44.443Z,45.73
2023-02-17T05:12:14.686Z,39.93
2023-02-17T05:14:44.793Z,36.57
2023-02-17T05:17:14.810Z,38.13
2023-02-17T05:19:45.137Z,39.77
2023-02-17T05:22:17.720Z,39.53
2023-02-17T05:24:47.660Z,39.47
2023-02-17T05:27:17.647Z,45.10
2023-02-17T05:29:47.678Z,39.67
2023-02-17T05:32:17.991Z,38.67
2023-02-17T05:34:48.112Z,42.17
2023-02-17T05:37:22.747Z,36.67
2023-02-17T05:39:52.762Z,40.10
2023-02-17T05:42:28.999Z,41.27
2023-02-17T05:44:59.275Z,37.60
2023-02-17T05:47:29.272Z,34.63
2023-02-17T05:49:59.388Z,35.07
2023-02-17T05:52:31.958Z,38.57
2023-02-17T05:55:03.420Z,33.87
2023-02-17T05:57:33.548Z,40.30
2023-02-17T06:00:03.590Z,41.57
2023-02-17T06:02:33.425Z,34.37
2023-02-17T06:05:05.668Z,38.77
2023-02-17T06:07:43.411Z,34.43
2023-02-17T06:10:14.692Z,40.70
2023-02-17T06:12:44.602Z,34.93
2023-02-17T06:15:14.377Z,32.57
2023-02-17T06:17:47.237Z,31.43
2023-02-17T06:20:18.147Z,32.63
2023-02-17T06:22:51.227Z,33.73
2023-02-17T06:25:22.793Z,33.43
2023-02-17T06:27:52.608Z,32.40
2023-02-17T06:30:23.522Z,36.93
2023-02-17T06:32:54.790Z,34.03
2023-02-17T06:35:24.607Z,32.87
2023-02-17T06:37:57.030Z,37.50
2023-02-17T06:40:29.441Z,32.63
2023-02-17T06:42:59.235Z,35.33
2023-02-17T06:45:30.390Z,35.20
2023-02-17T06:48:00.216Z,34.47
2023-02-17T06:50:31.390Z,34.73
2023-02-17T06:53:03.926Z,35.07
2023-02-17T06:55:38.050Z,30.53
2023-02-17T06:58:18.826Z,32.43
2023-02-17T07:00:48.839Z,33.80
2023-02-17T07:03:28.989Z,29.60
2023-02-17T07:06:00.340Z,33.23
2023-02-17T07:08:35.685Z,33.37
2023-02-17T07:11:08.527Z,34.50
2023-02-17T07:13:47.693Z,33.70
2023-02-17T07:16:18.748Z,36.53
2023-02-17T07:18:53.062Z,33.10
2023-02-17T07:21:23.010Z,30.47
2023-02-17T07:23:55.709Z,32.50
2023-02-17T07:26:25.715Z,29.47
2023-02-17T07:28:55.654Z,28.23
2023-02-17T07:31:28.683Z,34.57
2023-02-17T07:33:58.501Z,28.97
2023-02-17T07:36:28.529Z,29.43
2023-02-17T07:39:01.200Z,33.60
2023-02-17T07:41:33.065Z,28.80
2023-02-17T07:44:06.515Z,33.30
2023-02-17T07:46:36.371Z,29.73
2023-02-17T07:49:07.556Z,33.97
2023-02-17T07:51:38.209Z,32.70
2023-02-17T07:54:11.143Z,34.33
2023-02-17T07:56:41.151Z,35.10
2023-02-17T07:59:12.218Z,32.33
2023-02-17T08:01:42.701Z,29.63
2023-02-17T08:04:12.881Z,29.17
2023-02-17T08:06:46.080Z,25.97
2023-02-17T08:09:30.946Z,26.57
2023-02-17T08:12:13.155Z,26.00
2023-02-17T08:14:45.695Z,25.77
2023-02-17T08:17:15.815Z,29.80
2023-02-17T08:19:48.904Z,29.00
2023-02-17T08:22:22.311Z,24.40
2023-02-17T08:24:57.847Z,23.03
2023-02-17T08:27:27.937Z,23.70
2023-02-17T08:29:59.065Z,26.50
2023-02-17T08:32:29.155Z,26.13
2023-02-17T08:35:00.923Z,23.40
2023-02-17T08:37:31.975Z,20.80
2023-02-17T08:40:05.913Z,23.03
2023-02-17T08:42:36.300Z,21.63
2023-02-17T08:45:09.768Z,20.60
2023-02-17T08:47:40.197Z,26.37
2023-02-17T08:50:12.478Z,17.40
2023-02-17T08:52:42.522Z,17.60
2023-02-17T08:55:15.367Z,23.97
2023-02-17T08:57:47.459Z,23.43
2023-02-17T09:00:19.132Z,23.00
2023-02-17T09:02:49.065Z,15.73
2023-02-17T09:05:19.094Z,17.07
2023-02-17T09:07:51.732Z,17.47
2023-02-17T09:10:24.507Z,15.07
2023-02-17T09:12:57.461Z,13.37
2023-02-17T09:15:27.676Z,15.87
2023-02-17T09:17:57.641Z,15.73
2023-02-17T09:20:27.546Z,15.30
2023-02-17T09:22:58.500Z,18.27
2023-02-17T09:25:31.060Z,15.43
2023-02-17T09:28:01.245Z,17.20
2023-02-17T09:30:31.371Z,14.17
2023-02-17T09:33:05.601Z,12.43
2023-02-17T09:35:36.190Z,14.37
2023-02-17T09:38:06.291Z,17.10
2023-02-17T09:40:49.060Z,16.03
2023-02-17T09:43:32.585Z,17.13
2023-02-17T09:46:10.722Z,15.73
2023-02-17T09:48:45.287Z,10.20
2023-02-17T09:51:24.350Z,11.33
2023-02-17T09:54:02.684Z,12.13
2023-02-17T09:56:38.251Z,12.73
2023-02-17T09:59:14.863Z,11.90
2023-02-17T10:01:47.367Z,9.90
2023-02-17T10:04:27.111Z,8.47
2023-02-17T10:07:04.443Z,14.10
2023-02-17T10:09:37.704Z,9.10
2023-02-17T10:12:18.016Z,7.37
2023-02-17T10:14:52.757Z,9.23
2023-02-17T10:17:27.979Z,8.67
2023-02-17T10:20:03.692Z,12.03
2023-02-17T10:22:35.115Z,12.13
2023-02-17T10:25:21.019Z,11.17
2023-02-17T10:28:02.876Z,8.47
2023-02-17T10:30:43.797Z,13.23
2023-02-17T10:33:21.151Z,9.00
2023-02-17T10:35:57.224Z,11.97
2023-02-17T10:38:39.626Z,8.10
2023-02-17T10:41:14.144Z,11.20
2023-02-17T10:43:48.104Z,10.87
2023-02-17T10:46:21.817Z,11.37
2023-02-17T10:48:53.791Z,9.07
2023-02-17T10:51:27.885Z,9.80
2023-02-17T10:54:03.409Z,13.40
2023-02-17T10:56:41.121Z,17.07
2023-02-17T10:59:20.882Z,12.17
2023-02-17T11:01:51.436Z,12.33
2023-02-17T11:04:21.213Z,10.80
2023-02-17T11:06:53.207Z,10.47
2023-02-17T11:09:28.900Z,12.70
2023-02-17T11:12:03.665Z,13.37
2023-02-17T11:14:39.625Z,10.73
2023-02-17T11:17:20.202Z,15.70
2023-02-17T11:19:59.448Z,10.90
2023-02-17T11:22:36.033Z,16.00
2023-02-17T11:25:09.764Z,13.30
2023-02-17T11:27:40.363Z,13.43
2023-02-17T11:30:19.211Z,11.77
2023-02-17T11:32:49.463Z,10.03
2023-02-17T11:35:29.837Z,11.23
2023-02-17T11:38:05.613Z,13.17
2023-02-17T11:40:36.166Z,10.53
2023-02-17T11:43:09.506Z,9.73
2023-02-17T11:45:47.245Z,12.03
2023-02-17T11:48:45.154Z,14.93
2023-02-17T11:51:23.924Z,9.03
2023-02-17T11:54:05.039Z,9.53
2023-02-17T11:56:38.781Z,11.77
2023-02-17T11:59:24.532Z,12.60
2023-02-17T12:02:17.184Z,13.00
2023-02-17T12:05:01.577Z,15.27
2023-02-17T12:07:43.383Z,10.80
2023-02-17T12:10:19.397Z,8.53
2023-02-17T12:13:06.099Z,11.80
2023-02-17T12:15:50.377Z,10.80
2023-02-17T12:18:37.713Z,13.10
2023-02-17T12:21:15.031Z,13.50
2023-02-17T12:24:09.802Z,11.43
2023-02-17T12:26:44.092Z,11.77
2023-02-17T12:29:32.163Z,10.77
2023-02-17T12:32:18.409Z,9.90
2023-02-17T12:34:59.091Z,8.03
2023-02-17T12:37:33.826Z,10.87
2023-02-17T12:40:08.812Z,9.37
2023-02-17T12:42:42.558Z,7.30
2023-02-17T12:45:21.605Z,8.20
2023-02-17T12:47:57.216Z,11.73
2023-02-17T12:50:35.764Z,7.47
2023-02-17T12:53:10.852Z,10.27
2023-02-17T12:55:48.886Z,8.17
2023-02-17T12:58:23.411Z,7.40
2023-02-17T13:00:57.806Z,10.43
2023-02-17T13:03:27.972Z,7.70
2023-02-17T13:06:05.816Z,8.53
2023-02-17T13:08:42.676Z,9.93
2023-02-17T13:11:17.103Z,9.70
2023-02-17T13:13:46.939Z,9.97
2023-02-17T13:16:17.743Z,8.50
2023-02-17T13:18:50.540Z,11.43
2023-02-17T13:21:34.589Z,9.80
2023-02-17T13:24:07.541Z,10.60
2023-02-17T13:26:38.582Z,8.90
2023-02-17T13:29:24.873Z,12.80
2023-02-17T13:31:57.371Z,13.10
2023-02-17T13:34:33.516Z,11.30
2023-02-17T13:37:18.904Z,12.93
2023-02-17T13:39:48.861Z,12.90
2023-02-17T13:42:38.160Z,16.10
2023-02-17T13:45:29.679Z,10.60
2023-02-17T13:48:01.462Z,12.27
2023-02-17T13:50:34.863Z,11.17
2023-02-17T13:53:24.631Z,11.10
2023-02-17T13:55:54.839Z,10.60
2023-02-17T13:58:28.021Z,12.83
2023-02-17T14:00:59.855Z,10.33
2023-02-17T14:03:31.798Z,11.83
2023-02-17T14:06:04.006Z,12.63
2023-02-17T14:08:40.348Z,12.60
2023-02-17T14:11:12.757Z,11.53
2023-02-17T14:13:46.038Z,9.77
2023-02-17T14:16:32.610Z,13.93
2023-02-17T14:19:08.489Z,15.27
2023-02-17T14:21:39.343Z,14.40
2023-02-17T14:24:28.190Z,14.37
2023-02-17T14:27:01.797Z,13.77
2023-02-17T14:29:42.589Z,10.63
2023-02-17T14:32:31.599Z,10.00
2023-02-17T14:35:27.356Z,18.40
2023-02-17T14:37:57.267Z,11.10
2023-02-17T14:40:29.934Z,14.07
2023-02-17T14:42:59.702Z,14.20
2023-02-17T14:45:29.472Z,16.50
2023-02-17T14:47:59.811Z,15.00
2023-02-17T14:50:29.613Z,13.30
2023-02-17T14:52:59.504Z,13.03
2023-02-17T14:55:39.017Z,14.97
2023-02-17T14:58:08.848Z,13.90
2023-02-17T15:00:38.604Z,13.83
2023-02-17T15:03:08.375Z,13.77
2023-02-17T15:05:38.223Z,15.37
2023-02-17T15:08:08.713Z,14.40
2023-02-17T15:10:41.177Z,11.53
2023-02-17T15:13:16.988Z,15.47
2023-02-17T15:15:49.533Z,14.23
2023-02-17T15:18:20.960Z,18.47
2023-02-17T15:20:52.521Z,13.83
2023-02-17T15:23:25.700Z,19.20
2023-02-17T15:25:59.211Z,11.60
2023-02-17T15:28:29.121Z,11.53
2023-02-17T15:30:59.530Z,10.97
2023-02-17T15:33:29.844Z,13.73
2023-02-17T15:35:59.649Z,12.10
2023-02-17T15:38:29.390Z,15.40
2023-02-17T15:41:02.001Z,15.67
2023-02-17T15:43:37.760Z,11.83
2023-02-17T15:46:16.873Z,13.63
2023-02-17T15:48:48.638Z,11.77
2023-02-17T15:51:22.085Z,12.20
2023-02-17T15:53:52.457Z,11.50
2023-02-17T15:56:26.651Z,13.77
2023-02-17T15:58:57.357Z,16.63
2023-02-17T16:01:30.836Z,16.93
2023-02-17T16:04:01.412Z,18.10
2023-02-17T16:06:31.793Z,15.03
2023-02-17T16:09:01.605Z,16.17
2023-02-17T16:11:34.747Z,17.33
2023-02-17T16:14:04.834Z,13.43
2023-02-17T16:16:36.463Z,12.77
2023-02-17T16:19:06.315Z,18.43
2023-02-17T16:21:36.299Z,15.17
2023-02-17T16:24:06.269Z,16.10
2023-02-17T16:26:41.453Z,15.20
2023-02-17T16:29:17.204Z,16.83
2023-02-17T16:31:47.511Z,13.30
2023-02-17T16:34:21.030Z,14.43
2023-02-17T16:36:52.377Z,14.10
2023-02-17T16:39:24.493Z,15.40
2023-02-17T16:41:57.690Z,11.47
2023-02-17T16:44:30.178Z,14.53
2023-02-17T16:47:00.913Z,15.67
2023-02-17T16:49:36.050Z,13.07
2023-02-17T16:52:09.167Z,18.87
2023-02-17T16:54:39.415Z,23.13
2023-02-17T16:57:21.155Z,16.37
2023-02-17T16:59:51.277Z,17.33
2023-02-17T17:02:21.928Z,12.07
2023-02-17T17:04:51.808Z,14.50
2023-02-17T17:07:21.583Z,22.23
2023-02-17T17:10:14.843Z,18.30
2023-02-17T17:12:43.773Z,15.60
2023-02-17T17:15:14.202Z,17.73
2023-02-17T17:17:48.749Z,16.97
2023-02-17T17:20:24.197Z,11.27
2023-02-17T17:22:54.012Z,17.50
2023-02-17T17:25:23.811Z,12.80
2023-02-17T17:27:56.385Z,17.63
2023-02-17T17:30:27.816Z,17.43
2023-02-17T17:32:57.587Z,15.70
2023-02-17T17:35:27.587Z,14.57
2023-02-17T17:37:58.806Z,17.97
2023-02-17T17:40:31.207Z,13.80
2023-02-17T17:43:03.603Z,16.73
2023-02-17T17:45:33.408Z,14.53
2023-02-17T17:48:03.250Z,12.83
2023-02-17T17:50:33.188Z,14.10
2023-02-17T17:53:02.958Z,11.10
2023-02-17T17:55:32.731Z,15.40
2023-02-17T17:58:05.546Z,13.27
2023-02-17T18:00:35.601Z,13.33
2023-02-17T18:03:05.616Z,15.70
2023-02-17T18:05:35.496Z,15.47
2023-02-17T18:08:05.454Z,11.87
2023-02-17T18:10:35.564Z,11.50
2023-02-17T18:13:08.662Z,12.53
2023-02-17T18:15:38.584Z,13.30
2023-02-17T18:18:09.143Z,16.80
2023-02-17T18:20:38.924Z,16.23
2023-02-17T18:23:08.816Z,14.60
2023-02-17T18:25:38.707Z,15.63
2023-02-17T18:28:11.362Z,17.03
2023-02-17T18:30:41.319Z,15.53
2023-02-17T18:33:11.152Z,15.23
2023-02-17T18:35:41.091Z,16.73
2023-02-17T18:38:10.902Z,16.53
2023-02-17T18:40:41.769Z,13.80
2023-02-17T18:43:14.915Z,15.33
2023-02-17T18:45:44.679Z,18.53
2023-02-17T18:48:14.465Z,14.97
2023-02-17T18:50:44.241Z,14.17
2023-02-17T18:53:15.869Z,18.43
2023-02-17T18:55:48.505Z,12.80
2023-02-17T18:58:21.083Z,13.27
2023-02-17T19:00:50.871Z,18.80
2023-02-17T19:03:20.649Z,16.33
2023-02-17T19:05:50.486Z,11.90
2023-02-17T19:08:20.319Z,15.23
2023-02-17T19:10:50.220Z,14.37
2023-02-17T19:13:22.587Z,20.77
2023-02-17T19:15:52.447Z,17.03
2023-02-17T19:18:22.244Z,15.33
2023-02-17T19:20:51.999Z,14.40
2023-02-17T19:23:21.758Z,14.10
2023-02-17T19:25:51.547Z,18.40
2023-02-17T19:28:24.113Z,17.77
2023-02-17T19:30:53.950Z,19.53
2023-02-17T19:33:23.735Z,17.43
2023-02-17T19:35:53.828Z,15.77
2023-02-17T19:38:23.738Z,17.13
2023-02-17T19:40:53.501Z,12.47
2023-02-17T19:43:25.886Z,18.20
2023-02-17T19:45:55.646Z,19.67
2023-02-17T19:48:25.443Z,16.03
2023-02-17T19:51:14.297Z,18.67
2023-02-17T19:53:45.920Z,15.60
2023-02-17T19:56:17.814Z,15.40
2023-02-17T19:58:51.508Z,18.47
2023-02-17T20:01:23.800Z,19.33
2023-02-17T20:03:54.731Z,16.43
2023-02-17T20:06:27.126Z,20.30
2023-02-17T20:08:59.767Z,12.50
2023-02-17T20:11:30.766Z,13.37
2023-02-17T20:14:04.608Z,16.23
2023-02-17T20:16:35.021Z,15.93
2023-02-17T20:19:06.041Z,20.73
2023-02-17T20:21:38.659Z,11.00
2023-02-17T20:24:09.016Z,14.93
2023-02-17T20:26:44.328Z,13.07
2023-02-17T20:29:17.827Z,21.17
2023-02-17T20:31:47.782Z,14.97
2023-02-17T20:34:30.264Z,17.40
2023-02-17T20:37:01.641Z,22.33
2023-02-17T20:39:31.542Z,17.60
2023-02-17T20:42:01.962Z,15.40
2023-02-17T20:44:34.484Z,17.63
2023-02-17T20:47:04.557Z,11.60
2023-02-17T20:49:34.390Z,11.60
2023-02-17T20:52:05.833Z,12.70
2023-02-17T20:54:35.966Z,13.43
2023-02-17T20:57:05.763Z,12.40
2023-02-17T20:59:38.152Z,13.60
2023-02-17T21:02:07.899Z,14.43
2023-02-17T21:04:37.655Z,13.83
2023-02-17T21:07:07.477Z,15.93
2023-02-17T21:09:37.273Z,15.00
2023-02-17T21:12:08.038Z,12.60
2023-02-17T21:14:40.527Z,13.77
2023-02-17T21:17:10.323Z,16.13
2023-02-17T21:19:42.437Z,19.07
2023-02-17T21:22:12.196Z,15.37
2023-02-17T21:24:42.537Z,19.50
2023-02-17T21:27:12.420Z,13.67
2023-02-17T21:29:44.815Z,10.90
2023-02-17T21:32:14.607Z,9.73
2023-02-17T21:34:44.421Z,12.40
2023-02-17T21:37:14.335Z,15.73
2023-02-17T21:39:44.114Z,11.50
2023-02-17T21:42:14.156Z,13.37
2023-02-17T21:44:52.485Z,12.97
2023-02-17T21:47:22.625Z,11.30
2023-02-17T21:49:55.808Z,11.70
2023-02-17T21:52:25.562Z,12.40
2023-02-17T21:54:55.381Z,12.73
2023-02-17T21:57:25.167Z,13.37
2023-02-17T21:59:57.770Z,14.80
2023-02-17T22:02:27.529Z,9.93
2023-02-17T22:04:58.483Z,15.30
2023-02-17T22:07:28.235Z,13.17
2023-02-17T22:09:57.966Z,13.17
2023-02-17T22:12:27.841Z,14.70
2023-02-17T22:15:00.281Z,8.80
2023-02-17T22:17:30.034Z,6.90
2023-02-17T22:20:00.008Z,10.00
2023-02-17T22:22:29.814Z,7.87
2023-02-17T22:24:59.846Z,10.03
2023-02-17T22:27:29.600Z,9.20
2023-02-17T22:30:02.393Z,9.87
2023-02-17T22:32:32.184Z,9.33
2023-02-17T22:35:03.095Z,10.07
2023-02-17T22:37:32.986Z,10.53
2023-02-17T22:40:04.209Z,9.97
2023-02-17T22:42:34.026Z,14.80
2023-02-17T22:45:07.826Z,10.90
2023-02-17T22:47:37.597Z,12.63
2023-02-17T22:50:13.284Z,9.30
2023-02-17T22:52:43.071Z,10.67
2023-02-17T22:55:12.883Z,11.30
2023-02-17T22:57:42.735Z,8.87
2023-02-17T23:00:16.642Z,12.63
2023-02-17T23:02:46.470Z,8.83
2023-02-17T23:05:16.234Z,8.63
2023-02-17T23:07:45.976Z,9.13
2023-02-17T23:10:16.198Z,11.57
2023-02-17T23:12:45.953Z,13.63
2023-02-17T23:15:18.698Z,14.07
2023-02-17T23:18:00.379Z,14.57
2023-02-17T23:20:30.141Z,11.87
2023-02-17T23:22:59.935Z,13.13
2023-02-17T23:25:29.675Z,15.50
2023-02-17T23:27:59.433Z,23.97
2023-02-17T23:30:32.035Z,11.93
2023-02-17T23:33:02.071Z,11.57
2023-02-17T23:35:31.851Z,14.27
2023-02-17T23:38:01.719Z,17.20
2023-02-17T23:40:31.564Z,12.03
2023-02-17T23:43:01.335Z,11.40
2023-02-17T23:45:33.695Z,16.37
2023-02-17T23:48:03.898Z,12.27
2023-02-17T23:50:33.666Z,8.03
2023-02-17T23:53:03.509Z,11.07
2023-02-17T23:55:33.270Z,12.17
2023-02-17T23:58:03.476Z,9.90
